sensor_id;sensor_type;location;lat;lon;timestamp;pressure;altitude;pressure_sealevel;temperature;humidity
75650;BME280;64245;51.282;22.494;2024-03-02T00:00:19;98821.22;;;5.21;100.00
75650;BME280;64245;51.282;22.494;2024-03-02T00:03:06;98812.34;;;5.20;100.00
75650;BME280;64245;51.282;22.494;2024-03-02T00:05:32;98805.47;;;5.18;100.00
75650;BME280;64245;51.282;22.494;2024-03-02T00:07:58;98810.06;;;5.16;100.00
75650;BME280;64245;51.282;22.494;2024-03-02T00:10:26;98801.94;;;5.06;100.00
75650;BME280;64245;51.282;22.494;2024-03-02T00:12:57;98787.41;;;4.99;100.00
75650;BME280;64245;51.282;22.494;2024-03-02T00:18:02;98798.41;;;5.06;100.00
75650;BME280;64245;51.282;22.494;2024-03-02T00:20:28;98798.41;;;5.06;100.00
75650;BME280;64245;51.282;22.494;2024-03-02T00:23:05;98783.13;;;5.08;100.00
75650;BME280;64245;51.282;22.494;2024-03-02T00:25:43;98793.81;;;5.08;100.00
75650;BME280;64245;51.282;22.494;2024-03-02T00:31:14;98791.38;;;5.05;100.00
75650;BME280;64245;51.282;22.494;2024-03-02T00:33:41;98785.91;;;5.06;100.00
75650;BME280;64245;51.282;22.494;2024-03-02T00:36:08;98777.06;;;5.06;100.00
75650;BME280;64245;51.282;22.494;2024-03-02T00:38:44;98771.25;;;5.12;100.00
75650;BME280;64245;51.282;22.494;2024-03-02T00:41:16;98779.72;;;5.06;100.00
75650;BME280;64245;51.282;22.494;2024-03-02T00:43:45;98782.66;;;5.14;100.00
75650;BME280;64245;51.282;22.494;2024-03-02T00:46:13;98788.72;;;5.05;100.00
75650;BME280;64245;51.282;22.494;2024-03-02T00:49:00;98763.72;;;4.83;100.00
75650;BME280;64245;51.282;22.494;2024-03-02T00:51:32;98770.41;;;5.00;100.00
75650;BME280;64245;51.282;22.494;2024-03-02T00:54:01;98782.03;;;5.10;100.00
75650;BME280;64245;51.282;22.494;2024-03-02T00:56:30;98776.94;;;5.07;100.00
75650;BME280;64245;51.282;22.494;2024-03-02T00:58:56;98773.53;;;5.05;100.00
75650;BME280;64245;51.282;22.494;2024-03-02T01:01:22;98775.97;;;5.08;100.00
75650;BME280;64245;51.282;22.494;2024-03-02T01:03:48;98773.19;;;5.10;100.00
75650;BME280;64245;51.282;22.494;2024-03-02T01:06:17;98765.19;;;5.10;100.00
75650;BME280;64245;51.282;22.494;2024-03-02T01:08:44;98772.09;;;5.12;100.00
75650;BME280;64245;51.282;22.494;2024-03-02T01:11:10;98767.25;;;5.06;100.00
75650;BME280;64245;51.282;22.494;2024-03-02T01:13:36;98767.13;;;5.08;100.00
75650;BME280;64245;51.282;22.494;2024-03-02T01:16:02;98766.38;;;5.06;100.00
75650;BME280;64245;51.282;22.494;2024-03-02T01:18:28;98769.66;;;5.09;100.00
75650;BME280;64245;51.282;22.494;2024-03-02T01:20:54;98775.38;;;5.05;100.00
75650;BME280;64245;51.282;22.494;2024-03-02T01:23:23;98775.72;;;5.11;100.00
75650;BME280;64245;51.282;22.494;2024-03-02T01:25:49;98768.56;;;5.01;100.00
75650;BME280;64245;51.282;22.494;2024-03-02T01:28:15;98765.31;;;5.08;100.00
75650;BME280;64245;51.282;22.494;2024-03-02T01:30:44;98762.38;;;5.11;100.00
75650;BME280;64245;51.282;22.494;2024-03-02T01:33:10;98762.50;;;5.10;100.00
75650;BME280;64245;51.282;22.494;2024-03-02T01:35:36;98751.59;;;5.13;100.00
75650;BME280;64245;51.282;22.494;2024-03-02T01:38:03;98755.00;;;5.15;100.00
75650;BME280;64245;51.282;22.494;2024-03-02T01:40:30;98751.84;;;5.10;100.00
75650;BME280;64245;51.282;22.494;2024-03-02T01:42:56;98747.81;;;5.04;100.00
75650;BME280;64245;51.282;22.494;2024-03-02T01:45:24;98748.06;;;5.01;100.00
75650;BME280;64245;51.282;22.494;2024-03-02T01:47:50;98746.88;;;5.05;100.00
75650;BME280;64245;51.282;22.494;2024-03-02T01:50:16;98752.06;;;5.07;100.00
75650;BME280;64245;51.282;22.494;2024-03-02T01:52:42;98746.97;;;5.04;100.00
75650;BME280;64245;51.282;22.494;2024-03-02T01:55:09;98745.28;;;5.03;100.00
75650;BME280;64245;51.282;22.494;2024-03-02T01:57:35;98746.63;;;5.08;100.00
75650;BME280;64245;51.282;22.494;2024-03-02T02:00:01;98739.94;;;5.03;100.00
75650;BME280;64245;51.282;22.494;2024-03-02T02:02:27;98738.84;;;5.05;100.00
75650;BME280;64245;51.282;22.494;2024-03-02T02:04:53;98732.53;;;5.06;100.00
75650;BME280;64245;51.282;22.494;2024-03-02T02:07:18;98730.25;;;5.02;100.00
75650;BME280;64245;51.282;22.494;2024-03-02T02:09:44;98723.69;;;5.06;100.00
75650;BME280;64245;51.282;22.494;2024-03-02T02:12:10;98720.53;;;5.01;100.00
75650;BME280;64245;51.282;22.494;2024-03-02T02:14:36;98725.75;;;5.02;100.00
75650;BME280;64245;51.282;22.494;2024-03-02T02:17:02;98723.81;;;5.04;100.00
75650;BME280;64245;51.282;22.494;2024-03-02T02:19:28;98722.38;;;5.00;100.00
75650;BME280;64245;51.282;22.494;2024-03-02T02:21:55;98739.09;;;5.02;100.00
75650;BME280;64245;51.282;22.494;2024-03-02T02:24:20;98729.53;;;5.00;100.00
75650;BME280;64245;51.282;22.494;2024-03-02T02:26:46;98726.72;;;5.01;100.00
75650;BME280;64245;51.282;22.494;2024-03-02T02:29:12;98717.66;;;4.93;100.00
75650;BME280;64245;51.282;22.494;2024-03-02T02:31:38;98726.38;;;4.95;100.00
75650;BME280;64245;51.282;22.494;2024-03-02T02:34:05;98729.53;;;5.00;100.00
75650;BME280;64245;51.282;22.494;2024-03-02T02:36:32;98717.28;;;4.97;100.00
75650;BME280;64245;51.282;22.494;2024-03-02T02:39:02;98712.41;;;5.02;100.00
75650;BME280;64245;51.282;22.494;2024-03-02T02:41:29;98717.41;;;4.96;100.00
75650;BME280;64245;51.282;22.494;2024-03-02T02:43:55;98701.53;;;4.94;100.00
75650;BME280;64245;51.282;22.494;2024-03-02T02:46:21;98718.38;;;4.95;100.00
75650;BME280;64245;51.282;22.494;2024-03-02T02:48:46;98710.75;;;4.90;100.00
75650;BME280;64245;51.282;22.494;2024-03-02T02:51:12;98710.63;;;4.92;100.00
75650;BME280;64245;51.282;22.494;2024-03-02T02:53:38;98715.84;;;4.93;100.00
75650;BME280;64245;51.282;22.494;2024-03-02T02:56:06;98706.88;;;4.94;100.00
75650;BME280;64245;51.282;22.494;2024-03-02T02:58:32;98710.97;;;4.87;100.00
75650;BME280;64245;51.282;22.494;2024-03-02T03:00:58;98708.94;;;4.91;100.00
75650;BME280;64245;51.282;22.494;2024-03-02T03:03:23;98711.59;;;4.91;100.00
75650;BME280;64245;51.282;22.494;2024-03-02T03:05:49;98710.13;;;4.98;100.00
75650;BME280;64245;51.282;22.494;2024-03-02T03:08:15;98719.34;;;4.94;100.00
75650;BME280;64245;51.282;22.494;2024-03-02T03:10:44;98716.56;;;4.95;100.00
75650;BME280;64245;51.282;22.494;2024-03-02T03:13:10;98711.09;;;4.97;100.00
75650;BME280;64245;51.282;22.494;2024-03-02T03:15:36;98710.25;;;4.96;100.00
75650;BME280;64245;51.282;22.494;2024-03-02T03:18:02;98724.56;;;4.95;100.00
75650;BME280;64245;51.282;22.494;2024-03-02T03:20:29;98715.47;;;4.98;100.00
75650;BME280;64245;51.282;22.494;2024-03-02T03:22:56;98702.97;;;4.98;100.00
75650;BME280;64245;51.282;22.494;2024-03-02T03:25:22;98714.63;;;4.97;100.00
75650;BME280;64245;51.282;22.494;2024-03-02T03:27:48;98710.88;;;5.00;100.00
75650;BME280;64245;51.282;22.494;2024-03-02T03:30:14;98708.06;;;4.90;100.00
75650;BME280;64245;51.282;22.494;2024-03-02T03:32:39;98702.63;;;4.92;100.00
75650;BME280;64245;51.282;22.494;2024-03-02T03:35:06;98699.34;;;4.88;100.00
75650;BME280;64245;51.282;22.494;2024-03-02T03:37:32;98698.28;;;4.79;100.00
75650;BME280;64245;51.282;22.494;2024-03-02T03:39:59;98706.41;;;4.78;100.00
75650;BME280;64245;51.282;22.494;2024-03-02T03:42:25;98679.34;;;4.71;100.00
75650;BME280;64245;51.282;22.494;2024-03-02T03:44:51;98697.75;;;4.85;100.00
75650;BME280;64245;51.282;22.494;2024-03-02T03:47:17;98709.03;;;4.89;100.00
75650;BME280;64245;51.282;22.494;2024-03-02T03:49:43;98698.50;;;4.99;100.00
75650;BME280;64245;51.282;22.494;2024-03-02T03:52:09;98682.13;;;4.92;100.00
75650;BME280;64245;51.282;22.494;2024-03-02T03:54:35;98698.38;;;4.89;100.00
75650;BME280;64245;51.282;22.494;2024-03-02T03:57:02;98708.94;;;4.91;100.00
75650;BME280;64245;51.282;22.494;2024-03-02T03:59:28;98700.19;;;4.89;100.00
75650;BME280;64245;51.282;22.494;2024-03-02T04:01:54;98689.75;;;4.85;100.00
75650;BME280;64245;51.282;22.494;2024-03-02T04:04:20;98683.44;;;4.86;100.00
75650;BME280;64245;51.282;22.494;2024-03-02T04:06:45;98675.69;;;4.83;100.00
75650;BME280;64245;51.282;22.494;2024-03-02T04:09:11;98684.53;;;4.84;100.00
75650;BME280;64245;51.282;22.494;2024-03-02T04:11:37;98686.84;;;4.89;100.00
75650;BME280;64245;51.282;22.494;2024-03-02T04:14:02;98681.03;;;4.83;100.00
75650;BME280;64245;51.282;22.494;2024-03-02T04:16:28;98703.22;;;4.84;100.00
75650;BME280;64245;51.282;22.494;2024-03-02T04:18:54;98692.81;;;4.81;100.00
75650;BME280;64245;51.282;22.494;2024-03-02T04:21:20;98687.50;;;4.81;100.00
75650;BME280;64245;51.282;22.494;2024-03-02T04:23:46;98690.50;;;4.76;100.00
75650;BME280;64245;51.282;22.494;2024-03-02T04:26:12;98681.31;;;4.80;100.00
75650;BME280;64245;51.282;22.494;2024-03-02T04:28:37;98683.13;;;4.80;100.00
75650;BME280;64245;51.282;22.494;2024-03-02T04:31:03;98695.59;;;4.91;100.00
75650;BME280;64245;51.282;22.494;2024-03-02T04:33:29;98686.72;;;4.90;100.00
75650;BME280;64245;51.282;22.494;2024-03-02T04:35:55;98686.97;;;4.87;100.00
75650;BME280;64245;51.282;22.494;2024-03-02T04:38:20;98679.09;;;4.85;100.00
75650;BME280;64245;51.282;22.494;2024-03-02T04:40:46;98684.44;;;4.85;100.00
75650;BME280;64245;51.282;22.494;2024-03-02T04:43:12;98673.53;;;4.77;100.00
75650;BME280;64245;51.282;22.494;2024-03-02T04:45:42;98682.16;;;4.81;100.00
75650;BME280;64245;51.282;22.494;2024-03-02T04:48:08;98691.81;;;4.82;100.00
75650;BME280;64245;51.282;22.494;2024-03-02T04:50:34;98693.78;;;4.80;100.00
75650;BME280;64245;51.282;22.494;2024-03-02T04:52:59;98692.09;;;4.79;100.00
75650;BME280;64245;51.282;22.494;2024-03-02T04:55:25;98691.25;;;4.78;100.00
75650;BME280;64245;51.282;22.494;2024-03-02T04:57:54;98682.97;;;4.81;100.00
75650;BME280;64245;51.282;22.494;2024-03-02T05:00:23;98683.69;;;4.83;100.00
75650;BME280;64245;51.282;22.494;2024-03-02T05:02:49;98688.81;;;4.75;100.00
75650;BME280;64245;51.282;22.494;2024-03-02T05:05:15;98689.19;;;4.71;100.00
75650;BME280;64245;51.282;22.494;2024-03-02T05:07:41;98689.53;;;4.77;100.00
75650;BME280;64245;51.282;22.494;2024-03-02T05:10:11;98691.38;;;4.77;100.00
75650;BME280;64245;51.282;22.494;2024-03-02T05:12:39;98697.16;;;4.82;100.00
75650;BME280;64245;51.282;22.494;2024-03-02T05:15:09;98699.13;;;4.80;100.00
75650;BME280;64245;51.282;22.494;2024-03-02T05:17:40;98716.44;;;4.85;100.00
75650;BME280;64245;51.282;22.494;2024-03-02T05:20:07;98711.09;;;4.85;100.00
75650;BME280;64245;51.282;22.494;2024-03-02T05:22:36;98713.03;;;4.83;100.00
75650;BME280;64245;51.282;22.494;2024-03-02T05:25:03;98719.22;;;4.84;100.00
75650;BME280;64245;51.282;22.494;2024-03-02T05:27:29;98697.44;;;4.79;100.00
75650;BME280;64245;51.282;22.494;2024-03-02T05:29:56;98713.66;;;4.87;100.00
75650;BME280;64245;51.282;22.494;2024-03-02T05:32:21;98720.69;;;4.88;100.00
75650;BME280;64245;51.282;22.494;2024-03-02T05:34:47;98721.91;;;4.95;100.00
75650;BME280;64245;51.282;22.494;2024-03-02T05:37:13;98711.84;;;4.99;100.00
75650;BME280;64245;51.282;22.494;2024-03-02T05:39:39;98717.75;;;5.02;100.00
75650;BME280;64245;51.282;22.494;2024-03-02T05:42:04;98716.78;;;5.03;100.00
75650;BME280;64245;51.282;22.494;2024-03-02T05:44:30;98719.72;;;5.00;100.00
75650;BME280;64245;51.282;22.494;2024-03-02T05:46:56;98721.16;;;5.04;100.00
75650;BME280;64245;51.282;22.494;2024-03-02T05:49:22;98724.78;;;5.03;100.00
75650;BME280;64245;51.282;22.494;2024-03-02T05:51:48;98730.41;;;5.00;100.00
75650;BME280;64245;51.282;22.494;2024-03-02T05:54:14;98724.81;;;4.92;100.00
75650;BME280;64245;51.282;22.494;2024-03-02T05:56:39;98726.16;;;4.98;100.00
75650;BME280;64245;51.282;22.494;2024-03-02T05:59:05;98728.41;;;5.02;100.00
75650;BME280;64245;51.282;22.494;2024-03-02T06:01:45;98699.25;;;4.78;100.00
75650;BME280;64245;51.282;22.494;2024-03-02T06:04:16;98725.53;;;4.94;100.00
75650;BME280;64245;51.282;22.494;2024-03-02T06:06:42;98732.06;;;5.01;100.00
75650;BME280;64245;51.282;22.494;2024-03-02T06:09:08;98732.91;;;5.13;100.00
75650;BME280;64245;51.282;22.494;2024-03-02T06:11:35;98739.81;;;5.04;100.00
75650;BME280;64245;51.282;22.494;2024-03-02T06:14:01;98743.59;;;5.02;100.00
75650;BME280;64245;51.282;22.494;2024-03-02T06:16:26;98743.47;;;5.03;100.00
75650;BME280;64245;51.282;22.494;2024-03-02T06:18:52;98745.28;;;5.03;100.00
75650;BME280;64245;51.282;22.494;2024-03-02T06:21:19;98730.16;;;4.92;100.00
75650;BME280;64245;51.282;22.494;2024-03-02T06:23:45;98747.81;;;5.04;100.00
75650;BME280;64245;51.282;22.494;2024-03-02T06:26:11;98747.59;;;5.07;100.00
75650;BME280;64245;51.282;22.494;2024-03-02T06:28:38;98731.59;;;4.96;100.00
75650;BME280;64245;51.282;22.494;2024-03-02T06:31:03;98749.41;;;5.07;100.00
75650;BME280;64245;51.282;22.494;2024-03-02T06:33:30;98749.28;;;5.08;100.00
75650;BME280;64245;51.282;22.494;2024-03-02T06:35:55;98756.69;;;5.05;100.00
75650;BME280;64245;51.282;22.494;2024-03-02T06:38:21;98751.84;;;4.99;100.00
75650;BME280;64245;51.282;22.494;2024-03-02T06:40:47;98757.56;;;4.94;100.00
75650;BME280;64245;51.282;22.494;2024-03-02T06:43:13;98736.94;;;4.96;100.00
75650;BME280;64245;51.282;22.494;2024-03-02T06:45:38;98752.84;;;4.98;100.00
75650;BME280;64245;51.282;22.494;2024-03-02T06:48:06;98752.94;;;5.07;100.00
75650;BME280;64245;51.282;22.494;2024-03-02T06:50:32;98753.28;;;5.14;100.00
75650;BME280;64245;51.282;22.494;2024-03-02T06:52:58;98736.91;;;5.07;100.00
75650;BME280;64245;51.282;22.494;2024-03-02T06:55:24;98759.69;;;5.22;100.00
75650;BME280;64245;51.282;22.494;2024-03-02T06:57:51;98759.13;;;5.19;100.00
75650;BME280;64245;51.282;22.494;2024-03-02T07:00:18;98763.72;;;5.17;100.00
75650;BME280;64245;51.282;22.494;2024-03-02T07:02:44;98763.97;;;5.14;100.00
75650;BME280;64245;51.282;22.494;2024-03-02T07:05:10;98770.75;;;5.18;100.00
75650;BME280;64245;51.282;22.494;2024-03-02T07:07:37;98766.13;;;5.20;100.00
75650;BME280;64245;51.282;22.494;2024-03-02T07:10:04;98767.38;;;5.16;100.00
75650;BME280;64245;51.282;22.494;2024-03-02T07:12:30;98761.41;;;5.12;100.00
75650;BME280;64245;51.282;22.494;2024-03-02T07:14:57;98765.66;;;5.15;100.00
75650;BME280;64245;51.282;22.494;2024-03-02T07:17:30;98767.13;;;5.19;100.00
75650;BME280;64245;51.282;22.494;2024-03-02T07:19:56;98768.09;;;5.18;100.00
75650;BME280;64245;51.282;22.494;2024-03-02T07:22:22;98769.91;;;5.17;100.00
75650;BME280;64245;51.282;22.494;2024-03-02T07:24:48;98781.91;;;5.23;100.00
75650;BME280;64245;51.282;22.494;2024-03-02T07:27:16;98774.38;;;5.28;100.00
75650;BME280;64245;51.282;22.494;2024-03-02T07:29:42;98777.66;;;5.20;100.00
75650;BME280;64245;51.282;22.494;2024-03-02T07:32:09;98775.09;;;5.30;100.00
75650;BME280;64245;51.282;22.494;2024-03-02T07:34:35;98776.44;;;5.36;100.00
75650;BME280;64245;51.282;22.494;2024-03-02T07:37:01;98776.19;;;5.28;100.00
75650;BME280;64245;51.282;22.494;2024-03-02T07:39:27;98781.38;;;5.40;100.00
75650;BME280;64245;51.282;22.494;2024-03-02T07:41:53;98785.03;;;5.39;100.00
75650;BME280;64245;51.282;22.494;2024-03-02T07:44:19;98786.72;;;5.40;100.00
75650;BME280;64245;51.282;22.494;2024-03-02T07:46:46;98782.84;;;5.44;100.00
75650;BME280;64245;51.282;22.494;2024-03-02T07:49:13;98785.50;;;5.44;100.00
75650;BME280;64245;51.282;22.494;2024-03-02T07:51:39;98780.53;;;5.40;100.00
75650;BME280;64245;51.282;22.494;2024-03-02T07:54:05;98783.94;;;5.42;100.00
75650;BME280;64245;51.282;22.494;2024-03-02T07:56:31;98792.78;;;5.53;100.00
75650;BME280;64245;51.282;22.494;2024-03-02T07:58:57;98794.94;;;5.60;100.00
75650;BME280;64245;51.282;22.494;2024-03-02T08:01:28;98784.28;;;5.48;100.00
75650;BME280;64245;51.282;22.494;2024-03-02T08:03:59;98790.00;;;5.55;100.00
75650;BME280;64245;51.282;22.494;2024-03-02T08:06:29;98785.22;;;5.59;100.00
75650;BME280;64245;51.282;22.494;2024-03-02T08:08:55;98787.19;;;5.57;100.00
75650;BME280;64245;51.282;22.494;2024-03-02T08:11:21;98788.25;;;5.65;100.00
75650;BME280;64245;51.282;22.494;2024-03-02T08:13:48;98790.41;;;5.71;100.00
75650;BME280;64245;51.282;22.494;2024-03-02T08:16:17;98793.47;;;5.67;100.00
75650;BME280;64245;51.282;22.494;2024-03-02T08:18:50;98784.34;;;5.69;100.00
75650;BME280;64245;51.282;22.494;2024-03-02T08:21:16;98792.97;;;5.73;100.00
75650;BME280;64245;51.282;22.494;2024-03-02T08:23:43;98792.00;;;5.74;100.00
75650;BME280;64245;51.282;22.494;2024-03-02T08:26:09;98795.13;;;5.79;100.00
75650;BME280;64245;51.282;22.494;2024-03-02T08:28:35;98786.13;;;5.80;100.00
75650;BME280;64245;51.282;22.494;2024-03-02T08:31:03;98790.63;;;5.79;100.00
75650;BME280;64245;51.282;22.494;2024-03-02T08:33:29;98770.03;;;5.70;100.00
75650;BME280;64245;51.282;22.494;2024-03-02T08:35:55;98799.97;;;5.85;100.00
75650;BME280;64245;51.282;22.494;2024-03-02T08:38:21;98792.66;;;5.87;100.00
75650;BME280;64245;51.282;22.494;2024-03-02T08:40:47;98788.19;;;5.87;100.00
75650;BME280;64245;51.282;22.494;2024-03-02T08:43:13;98785.03;;;5.82;100.00
75650;BME280;64245;51.282;22.494;2024-03-02T08:45:42;98779.44;;;5.85;100.00
75650;BME280;64245;51.282;22.494;2024-03-02T08:48:09;98786.84;;;5.93;100.00
75650;BME280;64245;51.282;22.494;2024-03-02T08:50:36;98785.88;;;5.94;100.00
75650;BME280;64245;51.282;22.494;2024-03-02T08:53:04;98784.06;;;5.95;100.00
75650;BME280;64245;51.282;22.494;2024-03-02T08:55:31;98787.84;;;5.92;100.00
75650;BME280;64245;51.282;22.494;2024-03-02T08:57:56;98787.03;;;6.01;100.00
75650;BME280;64245;51.282;22.494;2024-03-02T09:00:23;98780.78;;;5.91;100.00
75650;BME280;64245;51.282;22.494;2024-03-02T09:02:50;98792.31;;;5.92;100.00
75650;BME280;64245;51.282;22.494;2024-03-02T09:05:16;98798.97;;;5.97;100.00
75650;BME280;64245;51.282;22.494;2024-03-02T09:07:42;98802.91;;;5.93;100.00
75650;BME280;64245;51.282;22.494;2024-03-02T09:10:08;98806.28;;;5.95;100.00
75650;BME280;64245;51.282;22.494;2024-03-02T09:12:35;98799.81;;;5.98;100.00
75650;BME280;64245;51.282;22.494;2024-03-02T09:15:02;98796.88;;;6.01;100.00
75650;BME280;64245;51.282;22.494;2024-03-02T09:17:29;98801.72;;;6.07;100.00
75650;BME280;64245;51.282;22.494;2024-03-02T09:19:56;98799.19;;;6.05;100.00
75650;BME280;64245;51.282;22.494;2024-03-02T09:22:22;98798.88;;;6.19;100.00
75650;BME280;64245;51.282;22.494;2024-03-02T09:24:49;98793.75;;;6.28;100.00
75650;BME280;64245;51.282;22.494;2024-03-02T09:27:14;98798.88;;;6.19;100.00
75650;BME280;64245;51.282;22.494;2024-03-02T09:29:41;98794.00;;;6.24;100.00
75650;BME280;64245;51.282;22.494;2024-03-02T09:32:07;98798.75;;;6.21;100.00
75650;BME280;64245;51.282;22.494;2024-03-02T09:34:34;98790.81;;;6.31;100.00
75650;BME280;64245;51.282;22.494;2024-03-02T09:36:59;98793.34;;;6.32;100.00
75650;BME280;64245;51.282;22.494;2024-03-02T09:42:23;98779.78;;;6.45;100.00
75650;BME280;64245;51.282;22.494;2024-03-02T09:45:03;98786.59;;;6.58;100.00
75650;BME280;64245;51.282;22.494;2024-03-02T09:47:41;98787.06;;;6.64;100.00
75650;BME280;64245;51.282;22.494;2024-03-02T09:50:08;98782.47;;;6.75;100.00
75650;BME280;64245;51.282;22.494;2024-03-02T09:52:33;98791.56;;;6.93;100.00
75650;BME280;64245;51.282;22.494;2024-03-02T09:55:00;98795.47;;;7.10;100.00
75650;BME280;64245;51.282;22.494;2024-03-02T09:57:26;98775.31;;;7.16;100.00
75650;BME280;64245;51.282;22.494;2024-03-02T09:59:52;98795.84;;;7.36;100.00
75650;BME280;64245;51.282;22.494;2024-03-02T10:02:18;98797.44;;;7.48;100.00
75650;BME280;64245;51.282;22.494;2024-03-02T10:04:44;98794.50;;;7.71;100.00
75650;BME280;64245;51.282;22.494;2024-03-02T10:07:16;98796.91;;;7.64;100.00
75650;BME280;64245;51.282;22.494;2024-03-02T10:09:48;98801.25;;;7.55;100.00
75650;BME280;64245;51.282;22.494;2024-03-02T10:12:16;98795.69;;;7.38;100.00
75650;BME280;64245;51.282;22.494;2024-03-02T10:14:42;98795.56;;;7.39;100.00
75650;BME280;64245;51.282;22.494;2024-03-02T10:17:09;98792.09;;;7.48;100.00
75650;BME280;64245;51.282;22.494;2024-03-02T10:19:36;98783.88;;;7.40;100.00
75650;BME280;64245;51.282;22.494;2024-03-02T10:22:03;98785.34;;;7.63;100.00
75650;BME280;64245;51.282;22.494;2024-03-02T10:24:37;98783.94;;;7.79;100.00
75650;BME280;64245;51.282;22.494;2024-03-02T10:27:10;98783.47;;;7.54;100.00
75650;BME280;64245;51.282;22.494;2024-03-02T10:29:40;98781.78;;;7.44;100.00
75650;BME280;64245;51.282;22.494;2024-03-02T10:32:09;98789.53;;;7.56;100.00
75650;BME280;64245;51.282;22.494;2024-03-02T10:34:36;98775.03;;;7.49;100.00
75650;BME280;64245;51.282;22.494;2024-03-02T10:37:01;98785.63;;;7.70;100.00
75650;BME280;64245;51.282;22.494;2024-03-02T10:39:28;98784.75;;;7.60;100.00
75650;BME280;64245;51.282;22.494;2024-03-02T10:41:55;98789.44;;;7.77;100.00
75650;BME280;64245;51.282;22.494;2024-03-02T10:44:22;98795.25;;;7.82;100.00
75650;BME280;64245;51.282;22.494;2024-03-02T10:46:49;98760.53;;;7.81;100.00
75650;BME280;64245;51.282;22.494;2024-03-02T10:49:15;98780.13;;;7.81;100.00
75650;BME280;64245;51.282;22.494;2024-03-02T10:51:41;98781.13;;;7.80;100.00
75650;BME280;64245;51.282;22.494;2024-03-02T10:54:07;98784.53;;;7.82;100.00
75650;BME280;64245;51.282;22.494;2024-03-02T10:56:44;98789.03;;;7.82;100.00
75650;BME280;64245;51.282;22.494;2024-03-02T11:00:02;98788.47;;;8.17;100.00
75650;BME280;64245;51.282;22.494;2024-03-02T11:02:30;98786.94;;;8.05;100.00
75650;BME280;64245;51.282;22.494;2024-03-02T11:04:56;98784.50;;;8.11;100.00
75650;BME280;64245;51.282;22.494;2024-03-02T11:07:27;98786.22;;;8.12;100.00
75650;BME280;64245;51.282;22.494;2024-03-02T11:10:01;98783.13;;;8.07;100.00
75650;BME280;64245;51.282;22.494;2024-03-02T11:12:48;98782.97;;;8.18;100.00
75650;BME280;64245;51.282;22.494;2024-03-02T11:15:18;98767.59;;;8.20;100.00
75650;BME280;64245;51.282;22.494;2024-03-02T11:17:46;98777.75;;;8.26;100.00
75650;BME280;64245;51.282;22.494;2024-03-02T11:20:13;98780.44;;;8.46;100.00
75650;BME280;64245;51.282;22.494;2024-03-02T11:22:40;98789.16;;;8.48;100.00
75650;BME280;64245;51.282;22.494;2024-03-02T11:25:22;98785.06;;;8.63;100.00
75650;BME280;64245;51.282;22.494;2024-03-02T11:33:06;98790.19;;;9.30;100.00
75650;BME280;64245;51.282;22.494;2024-03-02T11:35:42;98780.34;;;9.21;100.00
75650;BME280;64245;51.282;22.494;2024-03-02T11:38:14;98792.38;;;9.17;100.00
75650;BME280;64245;51.282;22.494;2024-03-02T11:40:40;98779.53;;;9.11;100.00
75650;BME280;64245;51.282;22.494;2024-03-02T11:43:07;98778.19;;;8.88;100.00
75650;BME280;64245;51.282;22.494;2024-03-02T11:45:36;98778.75;;;9.01;100.00
75650;BME280;64245;51.282;22.494;2024-03-02T11:48:08;98783.00;;;8.94;100.00
75650;BME280;64245;51.282;22.494;2024-03-02T11:50:46;98782.28;;;9.02;100.00
75650;BME280;64245;51.282;22.494;2024-03-02T11:53:12;98769.69;;;9.02;100.00
75650;BME280;64245;51.282;22.494;2024-03-02T11:55:42;98779.53;;;9.11;100.00
75650;BME280;64245;51.282;22.494;2024-03-02T11:58:12;98776.19;;;8.99;100.00
75650;BME280;64245;51.282;22.494;2024-03-02T12:00:41;98778.63;;;8.93;100.00
75650;BME280;64245;51.282;22.494;2024-03-02T12:03:12;98748.13;;;8.84;100.00
75650;BME280;64245;51.282;22.494;2024-03-02T12:05:42;98784.97;;;8.92;100.00
75650;BME280;64245;51.282;22.494;2024-03-02T12:08:08;98785.91;;;9.10;100.00
75650;BME280;64245;51.282;22.494;2024-03-02T12:10:35;98771.53;;;9.02;100.00
75650;BME280;64245;51.282;22.494;2024-03-02T12:13:06;98763.63;;;8.90;100.00
75650;BME280;64245;51.282;22.494;2024-03-02T12:15:34;98780.78;;;9.17;100.00
75650;BME280;64245;51.282;22.494;2024-03-02T12:18:01;98790.63;;;9.26;100.00
75650;BME280;64245;51.282;22.494;2024-03-02T12:20:29;98776.50;;;9.24;100.00
75650;BME280;64245;51.282;22.494;2024-03-02T12:22:57;98787.00;;;9.45;100.00
75650;BME280;64245;51.282;22.494;2024-03-02T12:25:24;98786.16;;;9.44;100.00
75650;BME280;64245;51.282;22.494;2024-03-02T12:27:54;98785.94;;;9.38;100.00
75650;BME280;64245;51.282;22.494;2024-03-02T12:30:21;98779.75;;;9.27;100.00
75650;BME280;64245;51.282;22.494;2024-03-02T12:32:47;98782.56;;;9.26;100.00
75650;BME280;64245;51.282;22.494;2024-03-02T12:35:14;98771.97;;;9.24;100.00
75650;BME280;64245;51.282;22.494;2024-03-02T12:37:47;98766.78;;;9.23;100.00
75650;BME280;64245;51.282;22.494;2024-03-02T12:40:14;98761.06;;;9.26;100.00
75650;BME280;64245;51.282;22.494;2024-03-02T12:42:40;98776.88;;;9.39;100.00
75650;BME280;64245;51.282;22.494;2024-03-02T12:45:08;98780.41;;;9.39;100.00
75650;BME280;64245;51.282;22.494;2024-03-02T12:47:35;98776.72;;;9.40;100.00
75650;BME280;64245;51.282;22.494;2024-03-02T12:50:01;98769.53;;;9.31;100.00
75650;BME280;64245;51.282;22.494;2024-03-02T12:52:31;98776.69;;;9.13;100.00
75650;BME280;64245;51.282;22.494;2024-03-02T12:55:03;98768.00;;;9.01;100.00
75650;BME280;64245;51.282;22.494;2024-03-02T12:57:31;98767.53;;;9.06;100.00
75650;BME280;64245;51.282;22.494;2024-03-02T13:00:01;98779.44;;;9.03;100.00
75650;BME280;64245;51.282;22.494;2024-03-02T13:02:31;98775.66;;;8.96;100.00
75650;BME280;64245;51.282;22.494;2024-03-02T13:04:57;98764.97;;;8.77;100.00